Terminal Aerodrome Forecast
Issued by NWS

Home | Current Version | Previous Version | Graphics & Text | Print | Product List | Glossary On
Versions: 1 2 3 4 5 6 7 8 9 10 11 12 13 14 15 16 17 18 19 20 21 22 23 24
000
FTUS41 KCLE 242300
TAFFDY
TAF
KFDY 242329Z 2500/2524 26012KT 6SM BR BKN015
     FM250200 17010KT 4SM BR VCSH BKN010 OVC030
     FM250700 25008KT 5SM -SN OVC015
     FM251400 19014G22KT 1SM -SN OVC008
     FM251700 06012KT 4SM -SHSN BR OVC008=

USA.gov is the U.S. government's official web portal to all federal, state and local government web resources and services.